createdAt,value
2019-02-17T00:02:28.131Z,18.85
2019-02-17T00:07:33.741Z,18.60
2019-02-17T00:12:39.347Z,16.23
2019-02-17T00:17:45.027Z,17.25
2019-02-17T00:22:50.659Z,16.35
2019-02-17T00:27:56.267Z,14.73
2019-02-17T00:33:01.867Z,14.15
2019-02-17T00:38:07.470Z,18.42
2019-02-17T00:43:13.078Z,16.95
2019-02-17T00:48:18.691Z,19.05
2019-02-17T00:53:24.296Z,15.85
2019-02-17T00:58:29.914Z,17.77
2019-02-17T01:03:35.595Z,16.20
2019-02-17T01:08:41.259Z,18.07
2019-02-17T01:13:46.877Z,18.73
2019-02-17T01:18:52.482Z,15.05
2019-02-17T01:23:58.143Z,15.23
2019-02-17T01:29:03.748Z,16.90
2019-02-17T01:34:11.146Z,16.15
2019-02-17T01:39:16.751Z,15.03
2019-02-17T01:44:22.358Z,15.90
2019-02-17T01:49:28.043Z,18.57
2019-02-17T01:54:33.661Z,19.82
2019-02-17T01:59:39.289Z,19.70
2019-02-17T02:04:44.892Z,19.00
2019-02-17T02:09:50.566Z,15.48
2019-02-17T02:14:56.250Z,18.12
2019-02-17T02:20:01.852Z,16.70
2019-02-17T02:25:07.782Z,17.23
2019-02-17T02:30:13.678Z,17.20
2019-02-17T02:35:19.277Z,16.82
2019-02-17T02:40:24.952Z,16.23
2019-02-17T02:45:30.550Z,15.08
2019-02-17T02:50:36.161Z,14.33
2019-02-17T02:55:41.762Z,15.10
2019-02-17T03:00:47.457Z,17.32
2019-02-17T03:06:03.566Z,24.37
2019-02-17T03:11:09.244Z,17.60
2019-02-17T03:16:14.842Z,16.37
2019-02-17T03:21:20.511Z,14.58
2019-02-17T03:26:26.202Z,14.38
2019-02-17T03:31:31.827Z,15.08
2019-02-17T03:36:37.419Z,17.85
2019-02-17T03:41:43.100Z,17.75
2019-02-17T03:46:48.775Z,17.27
2019-02-17T03:51:54.386Z,17.30
2019-02-17T03:57:00.060Z,16.73
2019-02-17T04:02:05.753Z,15.98
2019-02-17T04:07:11.361Z,14.53
2019-02-17T04:12:16.972Z,17.45
2019-02-17T04:17:22.582Z,18.70
2019-02-17T04:22:28.173Z,19.35
2019-02-17T04:27:33.846Z,14.10
2019-02-17T04:32:39.519Z,16.85
2019-02-17T04:37:45.196Z,18.12
2019-02-17T04:42:50.803Z,21.12
2019-02-17T04:47:56.493Z,20.50
2019-02-17T04:53:02.181Z,16.73
2019-02-17T04:58:07.833Z,19.32
2019-02-17T05:03:13.529Z,17.45
2019-02-17T05:08:19.213Z,17.37
2019-02-17T05:13:24.826Z,18.15
2019-02-17T05:18:30.492Z,17.77
2019-02-17T05:23:36.094Z,20.75
2019-02-17T05:28:41.707Z,21.07
2019-02-17T05:33:47.389Z,21.97
2019-02-17T05:38:52.992Z,18.90
2019-02-17T05:43:58.618Z,22.70
2019-02-17T05:49:04.306Z,19.48
2019-02-17T05:54:09.987Z,20.52
2019-02-17T05:59:15.592Z,20.57
2019-02-17T06:04:21.214Z,24.98
2019-02-17T06:09:26.843Z,24.32
2019-02-17T06:14:32.447Z,25.50
2019-02-17T06:19:38.073Z,25.70
2019-02-17T06:24:43.703Z,26.62
2019-02-17T06:29:49.383Z,31.35
2019-02-17T06:34:55.178Z,34.73
2019-02-17T06:40:00.848Z,31.87
2019-02-17T06:45:06.888Z,34.08
2019-02-17T06:50:12.733Z,34.88
2019-02-17T06:55:55.270Z,29.95
2019-02-17T07:01:02.618Z,30.75
2019-02-17T07:06:29.782Z,37.83
2019-02-17T07:11:35.471Z,32.73
2019-02-17T07:16:41.120Z,40.90
2019-02-17T07:21:46.741Z,41.77
2019-02-17T07:26:52.448Z,38.53
2019-02-17T07:31:58.102Z,37.00
2019-02-17T07:37:03.699Z,41.15
2019-02-17T07:42:09.744Z,39.53
2019-02-17T07:47:15.421Z,41.02
2019-02-17T07:52:22.704Z,42.20
2019-02-17T07:57:28.305Z,41.00
2019-02-17T08:02:33.907Z,39.90
2019-02-17T08:07:39.526Z,40.52
2019-02-17T08:12:45.174Z,36.48
2019-02-17T08:17:50.788Z,36.17
2019-02-17T08:22:56.488Z,35.92
2019-02-17T08:28:02.134Z,36.08
2019-02-17T08:33:07.808Z,35.73
2019-02-17T08:38:13.425Z,27.52
2019-02-17T08:43:19.052Z,29.70
2019-02-17T08:48:24.726Z,28.15
2019-02-17T08:53:30.376Z,28.38
2019-02-17T08:58:36.157Z,24.77
2019-02-17T09:03:41.764Z,29.72
2019-02-17T09:08:47.399Z,23.30
2019-02-17T09:13:53.010Z,41.85
2019-02-17T09:18:58.619Z,35.65
2019-02-17T09:24:04.224Z,20.25
2019-02-17T09:29:09.979Z,19.42
2019-02-17T09:34:15.663Z,20.77
2019-02-17T09:39:21.277Z,21.90
2019-02-17T09:44:26.883Z,18.50
2019-02-17T09:49:32.578Z,17.85
2019-02-17T09:54:38.196Z,17.27
2019-02-17T09:59:43.875Z,14.90
2019-02-17T10:04:49.567Z,16.32
2019-02-17T10:09:55.250Z,15.83
2019-02-17T10:15:01.112Z,13.78
2019-02-17T10:20:07.021Z,13.88
2019-02-17T10:25:12.831Z,10.88
2019-02-17T10:30:18.716Z,9.78
2019-02-17T10:35:24.408Z,11.15
2019-02-17T10:40:29.992Z,11.63
2019-02-17T10:45:35.600Z,12.65
2019-02-17T10:50:41.279Z,10.13
2019-02-17T10:55:46.896Z,10.65
2019-02-17T11:00:52.576Z,11.60
2019-02-17T11:05:58.313Z,6.65
2019-02-17T11:11:04.014Z,8.08
2019-02-17T11:16:09.613Z,9.75
2019-02-17T11:21:15.208Z,6.15
2019-02-17T11:26:20.822Z,9.03
2019-02-17T11:31:26.417Z,7.58
2019-02-17T11:36:32.010Z,9.45
2019-02-17T11:41:37.933Z,8.28
2019-02-17T11:46:43.659Z,6.70
2019-02-17T11:51:49.213Z,7.47
2019-02-17T11:56:56.952Z,5.53
2019-02-17T12:02:02.550Z,5.45
2019-02-17T12:07:08.284Z,7.62
2019-02-17T12:12:13.894Z,5.22
2019-02-17T12:17:19.525Z,5.67
2019-02-17T12:22:33.266Z,8.75
2019-02-17T12:28:00.911Z,6.10
2019-02-17T12:33:06.719Z,3.90
2019-02-17T12:38:12.389Z,5.50
2019-02-17T12:43:18.150Z,6.67
2019-02-17T12:48:23.822Z,4.00
2019-02-17T12:53:29.432Z,4.05
2019-02-17T12:58:35.046Z,3.98
2019-02-17T13:03:40.731Z,5.12
2019-02-17T13:08:46.424Z,2.90
2019-02-17T13:13:52.087Z,3.47
2019-02-17T13:18:57.693Z,4.30
2019-02-17T13:24:03.304Z,3.12
2019-02-17T13:29:08.957Z,2.98
2019-02-17T13:34:14.610Z,3.58
2019-02-17T13:39:20.344Z,2.35
2019-02-17T13:44:25.936Z,2.95
2019-02-17T13:49:31.575Z,2.65
2019-02-17T13:54:37.244Z,2.20
2019-02-17T13:59:42.929Z,3.02
2019-02-17T14:04:48.553Z,4.00
2019-02-17T14:09:54.157Z,6.28
2019-02-17T14:14:59.981Z,2.98
2019-02-17T14:20:07.496Z,2.35
2019-02-17T14:25:13.202Z,2.65
2019-02-17T14:30:18.812Z,2.83
2019-02-17T14:35:24.417Z,2.72
2019-02-17T14:40:30.017Z,2.70
2019-02-17T14:45:37.131Z,7.65
2019-02-17T14:50:42.741Z,4.28
2019-02-17T14:55:48.346Z,4.72
2019-02-17T15:00:54.035Z,3.08
2019-02-17T15:05:59.726Z,4.08
2019-02-17T15:11:05.495Z,7.67
2019-02-17T15:16:11.250Z,3.55
2019-02-17T15:21:17.020Z,3.60
2019-02-17T15:26:22.631Z,4.62
2019-02-17T15:31:28.277Z,3.98
2019-02-17T15:36:33.890Z,3.37
2019-02-17T15:41:39.567Z,3.60
2019-02-17T15:46:45.168Z,4.62
2019-02-17T15:51:52.563Z,5.53
2019-02-17T15:56:58.170Z,4.35
2019-02-17T16:02:03.838Z,4.30
2019-02-17T16:07:09.534Z,4.35
2019-02-17T16:12:15.167Z,5.78
2019-02-17T16:17:21.122Z,10.72
2019-02-17T16:22:26.789Z,9.35
2019-02-17T16:27:32.456Z,7.87
2019-02-17T16:32:38.118Z,7.17
2019-02-17T16:37:43.740Z,10.68
2019-02-17T16:42:49.339Z,7.97
2019-02-17T16:47:54.996Z,8.70
2019-02-17T16:53:00.609Z,7.53
2019-02-17T16:58:06.289Z,9.70
2019-02-17T17:03:11.893Z,10.05
2019-02-17T17:08:17.565Z,11.40
2019-02-17T17:13:23.279Z,15.85
2019-02-17T17:18:28.900Z,16.50
2019-02-17T17:23:34.506Z,15.10
2019-02-17T17:28:40.120Z,15.00
2019-02-17T17:33:45.729Z,15.53
2019-02-17T17:38:51.344Z,14.80
2019-02-17T17:43:56.962Z,17.87
2019-02-17T17:49:02.574Z,13.80
2019-02-17T17:54:08.253Z,15.25
2019-02-17T17:59:13.868Z,18.80
2019-02-17T18:04:19.508Z,14.63
2019-02-17T18:09:25.121Z,16.23
2019-02-17T18:14:30.765Z,25.25
2019-02-17T18:19:36.398Z,100.42
2019-02-17T18:24:42.012Z,109.32
2019-02-17T18:29:47.775Z,83.58
2019-02-17T18:34:53.496Z,56.40
2019-02-17T18:39:59.108Z,51.28
2019-02-17T18:45:04.916Z,26.80
2019-02-17T18:50:12.288Z,25.55
2019-02-17T18:55:17.987Z,28.50
2019-02-17T19:00:23.617Z,36.83
2019-02-17T19:05:32.293Z,35.68
2019-02-17T19:10:36.649Z,27.02
2019-02-17T19:15:42.353Z,22.67
2019-02-17T19:20:48.057Z,24.25
2019-02-17T19:25:53.730Z,42.65
2019-02-17T19:30:59.595Z,64.75
2019-02-17T19:36:05.284Z,24.45
2019-02-17T19:41:10.932Z,70.22
2019-02-17T19:46:16.545Z,55.52
2019-02-17T19:51:22.159Z,37.48
2019-02-17T19:56:27.842Z,22.93
2019-02-17T20:01:34.412Z,29.15
2019-02-17T20:06:41.695Z,27.35
2019-02-17T20:11:47.388Z,36.53
2019-02-17T20:16:53.041Z,24.65
2019-02-17T20:21:58.639Z,16.30
2019-02-17T20:27:04.252Z,12.23
2019-02-17T20:32:09.925Z,13.45
2019-02-17T20:37:15.535Z,15.40
2019-02-17T20:42:21.216Z,14.03
2019-02-17T20:47:26.861Z,13.78
2019-02-17T20:52:32.475Z,12.65
2019-02-17T20:57:38.103Z,12.65
2019-02-17T21:02:43.717Z,12.65
2019-02-17T21:07:49.362Z,9.78
2019-02-17T21:12:55.163Z,14.23
2019-02-17T21:18:00.841Z,11.53
2019-02-17T21:23:06.461Z,14.30
2019-02-17T21:28:12.133Z,11.33
2019-02-17T21:33:17.815Z,20.50
2019-02-17T21:38:23.423Z,13.50
2019-02-17T21:43:29.023Z,13.78
2019-02-17T21:48:34.634Z,18.70
2019-02-17T21:53:40.380Z,10.95
2019-02-17T21:58:45.997Z,14.40
2019-02-17T22:03:51.784Z,11.60
2019-02-17T22:08:57.874Z,16.40
2019-02-17T22:14:06.950Z,12.07
2019-02-17T22:19:12.572Z,13.03
2019-02-17T22:24:18.173Z,16.02
2019-02-17T22:29:23.887Z,17.37
2019-02-17T22:34:29.558Z,11.65
2019-02-17T22:39:35.161Z,12.98
2019-02-17T22:44:40.778Z,12.33
2019-02-17T22:49:46.386Z,11.73
2019-02-17T22:54:51.990Z,9.18
2019-02-17T22:59:57.601Z,17.15
2019-02-17T23:05:03.485Z,16.12
2019-02-17T23:10:10.047Z,14.95
2019-02-17T23:15:15.745Z,15.43
2019-02-17T23:20:21.358Z,15.53
2019-02-17T23:25:26.970Z,13.75
2019-02-17T23:30:32.871Z,21.23
2019-02-17T23:35:38.482Z,12.63
2019-02-17T23:40:44.088Z,14.95
2019-02-17T23:45:49.699Z,12.45
2019-02-17T23:50:55.322Z,15.32
2019-02-17T23:56:02.128Z,14.50
